createdAt,value
2019-04-07T00:01:27.571Z,37.75
2019-04-07T00:03:58.528Z,36.88
2019-04-07T00:06:29.461Z,35.25
2019-04-07T00:09:00.491Z,35.85
2019-04-07T00:11:32.419Z,38.13
2019-04-07T00:14:02.793Z,36.60
2019-04-07T00:16:33.131Z,36.45
2019-04-07T00:19:03.489Z,34.60
2019-04-07T00:21:33.831Z,37.53
2019-04-07T00:24:04.440Z,37.30
2019-04-07T00:26:35.846Z,36.08
2019-04-07T00:29:07.374Z,35.98
2019-04-07T00:31:37.719Z,36.55
2019-04-07T00:34:08.064Z,37.33
2019-04-07T00:36:38.405Z,36.53
2019-04-07T00:39:09.570Z,35.85
2019-04-07T00:41:40.293Z,35.63
2019-04-07T00:44:10.686Z,35.50
2019-04-07T00:46:41.026Z,36.88
2019-04-07T00:49:11.627Z,36.20
2019-04-07T00:51:42.145Z,35.73
2019-04-07T00:54:12.636Z,35.45
2019-04-07T00:56:43.873Z,33.67
2019-04-07T00:59:14.429Z,35.95
2019-04-07T01:01:44.990Z,34.60
2019-04-07T01:04:15.438Z,34.43
2019-04-07T01:06:45.782Z,35.15
2019-04-07T01:09:16.544Z,34.38
2019-04-07T01:11:47.543Z,34.85
2019-04-07T01:14:18.203Z,35.98
2019-04-07T01:16:48.610Z,34.95
2019-04-07T01:19:19.012Z,35.28
2019-04-07T01:21:49.924Z,33.75
2019-04-07T01:24:20.983Z,34.85
2019-04-07T01:26:51.448Z,32.13
2019-04-07T01:29:21.807Z,33.30
2019-04-07T01:31:52.611Z,31.93
2019-04-07T01:34:23.829Z,33.60
2019-04-07T01:36:54.502Z,34.78
2019-04-07T01:39:25.866Z,33.67
2019-04-07T01:42:10.094Z,34.10
2019-04-07T01:44:48.042Z,34.13
2019-04-07T01:47:24.298Z,34.08
2019-04-07T01:50:03.095Z,33.10
2019-04-07T01:52:53.767Z,34.08
2019-04-07T01:55:37.952Z,33.08
2019-04-07T01:58:09.934Z,33.33
2019-04-07T02:00:50.799Z,32.28
2019-04-07T02:03:32.093Z,31.90
2019-04-07T02:06:07.144Z,32.70
2019-04-07T02:08:40.382Z,33.40
2019-04-07T02:11:18.728Z,32.15
2019-04-07T02:14:06.006Z,32.33
2019-04-07T02:16:38.005Z,31.73
2019-04-07T02:19:14.090Z,33.40
2019-04-07T02:21:46.201Z,30.45
2019-04-07T02:24:26.793Z,31.90
2019-04-07T02:27:01.826Z,29.72
2019-04-07T02:29:37.436Z,30.72
2019-04-07T02:32:13.091Z,30.17
2019-04-07T02:34:45.552Z,32.40
2019-04-07T02:37:17.676Z,32.98
2019-04-07T02:40:07.975Z,33.75
2019-04-07T02:42:42.892Z,29.92
2019-04-07T02:45:24.355Z,29.80
2019-04-07T02:48:05.323Z,31.52
2019-04-07T02:50:46.552Z,33.23
2019-04-07T02:53:24.603Z,31.27
2019-04-07T02:56:03.442Z,33.73
2019-04-07T02:58:38.418Z,33.85
2019-04-07T03:01:13.646Z,33.15
2019-04-07T03:03:46.520Z,33.58
2019-04-07T03:06:34.651Z,34.30
2019-04-07T03:08:52.663Z,31.90
2019-04-07T03:11:29.198Z,31.57
2019-04-07T03:14:04.280Z,30.72
2019-04-07T03:16:39.442Z,32.08
2019-04-07T03:19:15.160Z,32.67
2019-04-07T03:21:48.310Z,31.27
2019-04-07T03:24:23.155Z,33.78
2019-04-07T03:26:55.666Z,31.15
2019-04-07T03:29:27.782Z,30.30
2019-04-07T03:32:03.627Z,30.15
2019-04-07T03:34:38.218Z,33.40
2019-04-07T03:37:22.602Z,32.53
2019-04-07T03:39:43.946Z,32.35
2019-04-07T03:42:18.832Z,31.87
2019-04-07T03:44:51.209Z,33.13
2019-04-07T03:47:26.135Z,34.13
2019-04-07T03:50:04.185Z,33.02
2019-04-07T03:52:48.840Z,33.08
2019-04-07T03:55:36.550Z,33.23
2019-04-07T03:58:12.217Z,31.27
2019-04-07T04:01:11.455Z,30.30
2019-04-07T04:03:49.430Z,28.50
2019-04-07T04:06:28.214Z,30.00
2019-04-07T04:09:00.543Z,31.00
2019-04-07T04:11:40.610Z,33.63
2019-04-07T04:14:16.470Z,32.90
2019-04-07T04:16:49.141Z,33.08
2019-04-07T04:19:19.474Z,32.58
2019-04-07T04:21:52.626Z,30.05
2019-04-07T04:24:23.118Z,33.80
2019-04-07T04:26:53.886Z,32.40
2019-04-07T04:29:24.754Z,31.87
2019-04-07T04:31:55.699Z,32.70
2019-04-07T04:34:26.042Z,34.23
2019-04-07T04:36:56.649Z,33.90
2019-04-07T04:39:27.012Z,34.30
2019-04-07T04:41:57.710Z,33.70
2019-04-07T04:44:28.454Z,31.82
2019-04-07T04:46:59.169Z,32.73
2019-04-07T04:49:29.536Z,33.00
2019-04-07T04:52:00.450Z,32.98
2019-04-07T04:54:31.835Z,34.25
2019-04-07T04:57:05.443Z,34.88
2019-04-07T04:59:35.172Z,33.75
2019-04-07T05:02:05.733Z,34.03
2019-04-07T05:04:36.080Z,35.03
2019-04-07T05:07:06.419Z,34.13
2019-04-07T05:09:44.272Z,32.93
2019-04-07T05:12:09.356Z,33.78
2019-04-07T05:14:40.348Z,33.00
2019-04-07T05:17:10.682Z,32.98
2019-04-07T05:19:42.873Z,33.65
2019-04-07T05:22:13.656Z,33.63
2019-04-07T05:24:43.972Z,33.78
2019-04-07T05:27:14.321Z,33.28
2019-04-07T05:29:44.754Z,35.88
2019-04-07T05:32:15.750Z,34.90
2019-04-07T05:34:46.792Z,33.92
2019-04-07T05:37:17.649Z,33.70
2019-04-07T05:39:48.396Z,34.78
2019-04-07T05:42:18.895Z,33.73
2019-04-07T05:44:49.186Z,33.95
2019-04-07T05:47:20.145Z,31.65
2019-04-07T05:49:54.464Z,33.42
2019-04-07T05:52:22.809Z,32.70
2019-04-07T05:54:53.410Z,34.25
2019-04-07T05:57:24.043Z,34.70
2019-04-07T05:59:54.898Z,34.70
2019-04-07T06:02:25.610Z,31.35
2019-04-07T06:04:58.525Z,32.15
2019-04-07T06:07:30.626Z,30.82
2019-04-07T06:10:00.144Z,34.33
2019-04-07T06:12:31.656Z,31.42
2019-04-07T06:15:02.010Z,33.60
2019-04-07T06:17:32.342Z,30.92
2019-04-07T06:20:03.626Z,30.35
2019-04-07T06:22:34.844Z,31.65
2019-04-07T06:25:07.229Z,31.35
2019-04-07T06:27:38.378Z,32.58
2019-04-07T06:30:12.029Z,32.25
2019-04-07T06:32:43.778Z,33.15
2019-04-07T06:35:14.495Z,33.60
2019-04-07T06:37:45.395Z,32.70
2019-04-07T06:40:20.438Z,32.28
2019-04-07T06:42:47.873Z,32.67
2019-04-07T06:45:23.422Z,32.45
2019-04-07T06:48:01.204Z,31.07
2019-04-07T06:50:49.300Z,32.15
2019-04-07T06:53:27.126Z,32.60
2019-04-07T06:56:03.830Z,31.73
2019-04-07T06:58:41.825Z,31.87
2019-04-07T07:01:16.602Z,30.12
2019-04-07T07:04:09.295Z,31.45
2019-04-07T07:06:54.483Z,30.40
2019-04-07T07:09:41.703Z,29.95
2019-04-07T07:12:35.688Z,28.83
2019-04-07T07:15:03.390Z,29.02
2019-04-07T07:17:36.538Z,27.17
2019-04-07T07:20:28.799Z,28.40
2019-04-07T07:23:10.173Z,27.75
2019-04-07T07:25:40.888Z,28.98
2019-04-07T07:28:13.409Z,29.05
2019-04-07T07:30:43.937Z,29.10
2019-04-07T07:33:14.847Z,27.77
2019-04-07T07:35:48.783Z,26.80
2019-04-07T07:38:17.243Z,27.35
2019-04-07T07:40:49.342Z,26.75
2019-04-07T07:43:19.906Z,26.45
2019-04-07T07:45:50.241Z,28.57
2019-04-07T07:48:24.882Z,26.75
2019-04-07T07:50:52.644Z,27.75
2019-04-07T07:53:27.254Z,27.42
2019-04-07T07:55:56.528Z,27.10
2019-04-07T07:58:30.191Z,27.07
2019-04-07T08:01:00.543Z,27.25
2019-04-07T08:03:31.539Z,26.30
2019-04-07T08:06:04.665Z,25.30
2019-04-07T08:08:34.283Z,26.65
2019-04-07T08:11:04.739Z,25.30
2019-04-07T08:13:41.162Z,26.07
2019-04-07T08:16:07.134Z,25.32
2019-04-07T08:18:40.651Z,24.15
2019-04-07T08:21:11.722Z,23.75
2019-04-07T08:23:44.589Z,25.48
2019-04-07T08:26:13.634Z,25.48
2019-04-07T08:28:44.007Z,23.55
2019-04-07T08:31:17.753Z,24.12
2019-04-07T08:33:50.229Z,23.73
2019-04-07T08:36:19.409Z,24.12
2019-04-07T08:38:53.976Z,22.42
2019-04-07T08:41:22.328Z,21.85
2019-04-07T08:43:55.301Z,21.05
2019-04-07T08:46:26.514Z,21.85
2019-04-07T08:48:58.518Z,22.35
2019-04-07T08:51:32.348Z,21.33
2019-04-07T08:54:04.577Z,20.80
2019-04-07T08:56:34.567Z,20.23
2019-04-07T08:59:08.474Z,19.27
2019-04-07T09:01:37.215Z,19.70
2019-04-07T09:04:07.720Z,18.67
2019-04-07T09:06:38.574Z,20.10
2019-04-07T09:09:09.107Z,21.00
2019-04-07T09:11:41.258Z,20.32
2019-04-07T09:14:11.512Z,20.00
2019-04-07T09:16:44.723Z,19.32
2019-04-07T09:19:20.358Z,19.57
2019-04-07T09:21:55.820Z,20.08
2019-04-07T09:24:34.005Z,19.85
2019-04-07T09:27:05.993Z,20.62
2019-04-07T09:29:53.405Z,18.98
2019-04-07T09:32:41.766Z,19.98
2019-04-07T09:35:22.882Z,19.15
2019-04-07T09:38:09.897Z,18.82
2019-04-07T09:41:00.550Z,19.52
2019-04-07T09:43:49.552Z,19.07
2019-04-07T09:46:24.932Z,20.32
2019-04-07T09:49:03.417Z,19.67
2019-04-07T09:51:51.833Z,20.77
2019-04-07T09:54:26.522Z,19.45
2019-04-07T09:57:14.444Z,17.95
2019-04-07T09:59:50.747Z,19.95
2019-04-07T10:02:26.205Z,18.32
2019-04-07T10:05:13.440Z,17.92
2019-04-07T10:07:54.741Z,17.02
2019-04-07T10:10:32.763Z,17.27
2019-04-07T10:13:11.097Z,17.20
2019-04-07T10:15:48.988Z,16.62
2019-04-07T10:18:36.882Z,15.15
2019-04-07T10:21:21.764Z,15.63
2019-04-07T10:23:54.029Z,16.75
2019-04-07T10:26:48.838Z,15.85
2019-04-07T10:29:27.592Z,16.57
2019-04-07T10:35:02.455Z,14.70
2019-04-07T10:37:43.967Z,15.53
2019-04-07T10:40:21.766Z,14.18
2019-04-07T10:42:54.445Z,15.93
2019-04-07T10:45:40.553Z,15.10
2019-04-07T10:48:16.758Z,14.98
2019-04-07T10:50:49.250Z,15.48
2019-04-07T10:53:21.216Z,15.28
2019-04-07T10:55:56.384Z,13.95
2019-04-07T10:58:37.896Z,12.82
2019-04-07T11:01:12.758Z,12.85
2019-04-07T11:03:53.678Z,13.90
2019-04-07T11:06:30.575Z,11.90
2019-04-07T11:09:18.875Z,11.95
2019-04-07T11:12:06.906Z,11.38
2019-04-07T11:14:51.244Z,11.12
2019-04-07T11:17:41.861Z,11.60
2019-04-07T11:20:29.928Z,10.85
2019-04-07T11:23:11.909Z,10.78
2019-04-07T11:25:47.740Z,10.75
2019-04-07T11:28:35.955Z,11.95
2019-04-07T11:31:26.672Z,10.75
2019-04-07T11:33:58.931Z,10.70
2019-04-07T11:36:34.237Z,10.82
2019-04-07T11:39:22.101Z,9.90
2019-04-07T11:41:57.391Z,10.32
2019-04-07T11:44:32.297Z,9.65
2019-04-07T11:47:15.365Z,10.55
2019-04-07T11:49:59.269Z,9.78
2019-04-07T11:52:36.959Z,9.73
2019-04-07T11:55:12.072Z,9.65
2019-04-07T11:57:47.203Z,10.50
2019-04-07T12:00:20.664Z,9.68
2019-04-07T12:03:01.580Z,9.93
2019-04-07T12:05:33.631Z,9.43
2019-04-07T12:08:15.058Z,9.80
2019-04-07T12:10:58.498Z,10.10
2019-04-07T12:13:26.851Z,11.25
2019-04-07T12:16:02.111Z,10.08
2019-04-07T12:18:42.935Z,10.53
2019-04-07T12:21:22.544Z,10.95
2019-04-07T12:24:00.499Z,10.10
2019-04-07T12:26:39.715Z,10.03
2019-04-07T12:29:25.472Z,11.10
2019-04-07T12:32:26.059Z,11.08
2019-04-07T12:34:58.154Z,9.70
2019-04-07T12:37:39.240Z,9.90
2019-04-07T12:40:22.448Z,10.88
2019-04-07T12:42:56.973Z,10.25
2019-04-07T12:45:29.921Z,9.65
2019-04-07T12:48:03.327Z,10.90
2019-04-07T12:50:46.554Z,10.60
2019-04-07T12:53:36.642Z,9.45
2019-04-07T12:56:09.596Z,10.15
2019-04-07T12:58:46.393Z,10.03
2019-04-07T13:01:19.858Z,9.58
2019-04-07T13:04:08.927Z,9.40
2019-04-07T13:06:44.942Z,9.95
2019-04-07T13:09:17.651Z,9.65
2019-04-07T13:11:59.028Z,9.73
2019-04-07T13:14:43.930Z,9.58
2019-04-07T13:17:19.463Z,10.28
2019-04-07T13:20:07.315Z,9.60
2019-04-07T13:22:48.684Z,10.03
2019-04-07T13:25:29.254Z,9.60
2019-04-07T13:28:08.170Z,9.55
2019-04-07T13:30:40.954Z,9.00
2019-04-07T13:33:20.395Z,9.38
2019-04-07T13:36:01.782Z,9.40
2019-04-07T13:38:33.957Z,9.38
2019-04-07T13:41:23.491Z,9.63
2019-04-07T13:43:59.365Z,10.60
2019-04-07T13:46:50.356Z,9.78
2019-04-07T13:49:39.545Z,9.58
2019-04-07T13:52:19.218Z,10.08
2019-04-07T13:55:04.629Z,9.18
2019-04-07T13:57:46.110Z,9.93
2019-04-07T14:00:31.697Z,10.68
2019-04-07T14:03:22.448Z,10.50
2019-04-07T14:06:11.261Z,10.10
2019-04-07T14:08:42.856Z,9.63
2019-04-07T14:11:33.856Z,10.70
2019-04-07T14:14:23.360Z,10.60
2019-04-07T14:16:58.488Z,9.95
2019-04-07T14:19:47.610Z,10.50
2019-04-07T14:22:22.486Z,9.48
2019-04-07T14:24:54.780Z,9.95
2019-04-07T14:27:26.860Z,9.70
2019-04-07T14:30:15.175Z,10.23
2019-04-07T14:32:48.691Z,9.50
2019-04-07T14:35:37.244Z,8.43
2019-04-07T14:38:22.253Z,9.00
2019-04-07T14:41:03.500Z,9.00
2019-04-07T14:43:50.779Z,9.73
2019-04-07T14:46:28.767Z,8.85
2019-04-07T14:49:04.419Z,10.38
2019-04-07T14:51:42.788Z,10.10
2019-04-07T14:54:20.443Z,9.20
2019-04-07T14:56:53.134Z,9.18
2019-04-07T14:59:41.661Z,7.12
2019-04-07T15:02:13.866Z,8.33
2019-04-07T15:04:48.543Z,8.78
2019-04-07T15:07:37.001Z,8.45
2019-04-07T15:10:21.663Z,9.00
2019-04-07T15:13:06.102Z,8.80
2019-04-07T15:15:36.877Z,8.90
2019-04-07T15:18:07.342Z,9.13
2019-04-07T15:20:37.896Z,8.10
2019-04-07T15:37:51.540Z,8.73
2019-04-07T15:40:21.739Z,8.78
2019-04-07T15:42:52.621Z,8.53
2019-04-07T15:45:23.450Z,9.78
2019-04-07T15:47:54.118Z,9.85
2019-04-07T15:50:24.767Z,10.20
2019-04-07T15:52:56.417Z,8.88
2019-04-07T15:55:42.398Z,10.30
2019-04-07T15:57:59.657Z,10.28
2019-04-07T16:00:32.389Z,10.55
2019-04-07T16:03:02.128Z,12.45
2019-04-07T16:05:39.914Z,10.32
2019-04-07T16:08:04.662Z,11.63
2019-04-07T16:10:35.906Z,13.30
2019-04-07T16:13:06.721Z,11.88
2019-04-07T16:15:37.248Z,13.10
2019-04-07T16:18:08.851Z,12.50
2019-04-07T16:20:40.495Z,10.75
2019-04-07T16:23:11.660Z,9.60
2019-04-07T16:25:42.766Z,10.43
2019-04-07T16:28:14.702Z,11.00
2019-04-07T16:30:47.820Z,9.68
2019-04-07T16:33:17.830Z,10.30
2019-04-07T16:35:52.793Z,9.45
2019-04-07T16:38:20.679Z,9.68
2019-04-07T16:40:51.027Z,9.65
2019-04-07T16:43:22.081Z,9.50
2019-04-07T16:45:53.462Z,9.18
2019-04-07T16:48:23.928Z,9.90
2019-04-07T16:50:55.297Z,10.82
2019-04-07T16:53:25.966Z,12.55
2019-04-07T16:55:56.531Z,9.75
2019-04-07T16:58:30.597Z,8.98
2019-04-07T17:01:01.256Z,9.15
2019-04-07T17:03:31.636Z,7.72
2019-04-07T17:06:02.926Z,7.72
2019-04-07T17:08:33.853Z,7.33
2019-04-07T17:11:07.150Z,7.58
2019-04-07T17:13:41.052Z,8.15
2019-04-07T17:16:11.565Z,7.72
2019-04-07T17:18:44.112Z,7.20
2019-04-07T17:21:18.379Z,7.85
2019-04-07T17:23:53.140Z,8.15
2019-04-07T17:26:23.552Z,7.67
2019-04-07T17:28:55.682Z,8.00
2019-04-07T17:31:29.083Z,8.60
2019-04-07T17:33:57.294Z,7.85
2019-04-07T17:36:28.216Z,7.78
2019-04-07T17:39:15.739Z,8.00
2019-04-07T17:41:49.922Z,7.50
2019-04-07T17:44:35.962Z,7.83
2019-04-07T17:47:08.391Z,8.33
2019-04-07T17:49:40.799Z,7.80
2019-04-07T17:52:15.794Z,8.38
2019-04-07T17:54:48.927Z,7.78
2019-04-07T17:57:36.649Z,7.58
2019-04-07T18:00:28.323Z,7.62
2019-04-07T18:03:05.300Z,7.40
2019-04-07T18:05:37.556Z,7.85
2019-04-07T18:08:14.797Z,7.72
2019-04-07T18:10:46.547Z,7.72
2019-04-07T18:13:22.816Z,7.58
2019-04-07T18:15:58.156Z,7.45
2019-04-07T18:18:39.005Z,8.18
2019-04-07T18:21:15.758Z,7.40
2019-04-07T18:23:48.393Z,7.70
2019-04-07T18:26:28.460Z,8.50
2019-04-07T18:29:03.858Z,8.38
2019-04-07T18:31:40.154Z,7.90
2019-04-07T18:34:23.065Z,8.63
2019-04-07T18:36:58.411Z,8.35
2019-04-07T18:39:30.475Z,8.33
2019-04-07T18:42:18.114Z,7.67
2019-04-07T18:44:50.957Z,7.78
2019-04-07T18:47:41.671Z,8.55
2019-04-07T18:50:30.993Z,9.18
2019-04-07T18:53:14.815Z,8.88
2019-04-07T18:55:50.428Z,9.00
2019-04-07T18:58:25.591Z,8.75
2019-04-07T19:01:04.302Z,8.18
2019-04-07T19:03:43.154Z,8.93
2019-04-07T19:06:18.194Z,8.40
2019-04-07T19:08:54.388Z,9.05
2019-04-07T19:11:34.093Z,9.18
2019-04-07T19:14:27.016Z,8.98
2019-04-07T19:16:39.788Z,9.30
2019-04-07T19:19:24.020Z,9.50
2019-04-07T19:22:04.271Z,9.75
2019-04-07T19:24:38.228Z,10.00
2019-04-07T19:27:21.919Z,9.20
2019-04-07T19:29:59.524Z,9.65
2019-04-07T19:32:34.211Z,9.83
2019-04-07T19:35:20.604Z,9.28
2019-04-07T19:38:00.132Z,8.90
2019-04-07T19:40:38.159Z,9.28
2019-04-07T19:43:25.343Z,8.80
2019-04-07T19:46:06.924Z,9.18
2019-04-07T19:48:51.216Z,9.25
2019-04-07T19:51:39.549Z,10.05
2019-04-07T19:54:14.500Z,9.95
2019-04-07T19:57:01.453Z,8.78
2019-04-07T19:59:33.786Z,10.30
2019-04-07T20:02:09.592Z,9.95
2019-04-07T20:04:59.337Z,10.10
2019-04-07T20:07:47.048Z,9.60
2019-04-07T20:10:35.856Z,9.83
2019-04-07T20:13:17.721Z,8.85
2019-04-07T20:16:02.482Z,10.00
2019-04-07T20:18:51.591Z,9.45
2019-04-07T20:21:42.520Z,9.05
2019-04-07T20:24:23.907Z,10.20
2019-04-07T20:27:08.802Z,9.43
2019-04-07T20:29:46.579Z,9.80
2019-04-07T20:32:18.685Z,9.10
2019-04-07T20:35:08.696Z,9.90
2019-04-07T20:37:47.138Z,9.45
2019-04-07T20:40:22.253Z,9.80
2019-04-07T20:43:00.753Z,8.95
2019-04-07T20:45:32.734Z,8.38
2019-04-07T20:48:07.860Z,8.80
2019-04-07T20:50:43.656Z,9.83
2019-04-07T20:53:23.229Z,9.30
2019-04-07T20:55:52.314Z,8.50
2019-04-07T20:58:48.774Z,8.93
2019-04-07T21:01:32.092Z,9.63
2019-04-07T21:04:06.834Z,9.00
2019-04-07T21:06:44.529Z,8.70
2019-04-07T21:09:22.223Z,8.50
2019-04-07T21:12:00.861Z,8.20
2019-04-07T21:14:37.016Z,8.13
2019-04-07T21:17:09.823Z,8.50
2019-04-07T21:19:45.549Z,7.60
2019-04-07T21:22:18.549Z,9.13
2019-04-07T21:25:05.798Z,8.03
2019-04-07T21:27:40.856Z,7.75
2019-04-07T21:30:16.383Z,8.55
2019-04-07T21:32:51.370Z,8.83
2019-04-07T21:35:41.300Z,8.38
2019-04-07T21:38:20.892Z,8.70
2019-04-07T21:40:52.878Z,9.10
2019-04-07T21:43:41.251Z,8.53
2019-04-07T21:46:22.362Z,9.60
2019-04-07T21:48:55.574Z,8.80
2019-04-07T21:51:31.105Z,9.43
2019-04-07T21:54:05.789Z,9.05
2019-04-07T21:56:46.297Z,9.60
2019-04-07T21:59:33.586Z,9.35
2019-04-07T22:02:11.706Z,8.78
2019-04-07T22:04:45.789Z,10.32
2019-04-07T22:07:17.865Z,9.38
2019-04-07T22:09:51.262Z,9.28
2019-04-07T22:12:25.760Z,9.60
2019-04-07T22:14:54.829Z,10.05
2019-04-07T22:17:25.174Z,9.78
2019-04-07T22:19:56.389Z,9.93
2019-04-07T22:22:27.633Z,10.43
2019-04-07T22:24:58.081Z,10.08
2019-04-07T22:27:28.712Z,9.40
2019-04-07T22:29:59.929Z,9.93
2019-04-07T22:32:31.130Z,9.93
2019-04-07T22:35:04.424Z,9.80
2019-04-07T22:37:34.515Z,10.35
2019-04-07T22:40:19.385Z,10.23
2019-04-07T22:42:50.131Z,9.03
2019-04-07T22:45:25.140Z,10.40
2019-04-07T22:47:55.101Z,10.35
2019-04-07T22:50:25.829Z,9.58
2019-04-07T22:52:56.224Z,10.35
2019-04-07T22:55:27.015Z,10.20
2019-04-07T22:57:57.846Z,10.25
2019-04-07T23:00:28.788Z,10.58
2019-04-07T23:02:59.475Z,10.30
2019-04-07T23:05:29.941Z,10.32
2019-04-07T23:08:00.303Z,10.68
2019-04-07T23:10:31.568Z,10.10
2019-04-07T23:13:02.066Z,10.85
2019-04-07T23:15:40.631Z,10.63
2019-04-07T23:18:05.346Z,10.95
2019-04-07T23:20:35.826Z,9.73
2019-04-07T23:23:06.814Z,10.98
2019-04-07T23:25:37.178Z,10.60
2019-04-07T23:28:08.212Z,10.58
2019-04-07T23:30:38.594Z,11.10
2019-04-07T23:33:08.961Z,10.13
2019-04-07T23:35:39.394Z,10.13
2019-04-07T23:38:09.742Z,10.82
2019-04-07T23:40:40.090Z,10.35
2019-04-07T23:43:11.150Z,10.35
2019-04-07T23:45:41.985Z,10.55
2019-04-07T23:48:12.418Z,10.98
2019-04-07T23:50:43.796Z,9.70
2019-04-07T23:54:09.163Z,10.20
2019-04-07T23:56:41.647Z,10.05
2019-04-07T23:59:14.620Z,10.08
